sensor_id;sensor_type;location;lat;lon;timestamp;temperature;humidity
15455;DHT22;21057;51.024;7.540;2022-09-09T00:02:01;16.00;99.90
15455;DHT22;21057;51.024;7.540;2022-09-09T00:04:32;16.00;99.90
15455;DHT22;21057;51.024;7.540;2022-09-09T00:07:04;16.10;99.90
15455;DHT22;21057;51.024;7.540;2022-09-09T00:09:39;16.10;99.90
15455;DHT22;21057;51.024;7.540;2022-09-09T00:12:11;16.10;99.90
15455;DHT22;21057;51.024;7.540;2022-09-09T00:14:45;16.10;99.90
15455;DHT22;21057;51.024;7.540;2022-09-09T00:17:21;16.20;99.90
15455;DHT22;21057;51.024;7.540;2022-09-09T00:19:51;16.20;99.90
15455;DHT22;21057;51.024;7.540;2022-09-09T00:22:23;16.20;99.90
15455;DHT22;21057;51.024;7.540;2022-09-09T00:25:05;16.30;99.90
15455;DHT22;21057;51.024;7.540;2022-09-09T00:27:40;16.40;99.90
15455;DHT22;21057;51.024;7.540;2022-09-09T00:30:16;16.50;99.90
15455;DHT22;21057;51.024;7.540;2022-09-09T00:32:45;16.50;99.90
15455;DHT22;21057;51.024;7.540;2022-09-09T00:35:17;16.60;99.90
15455;DHT22;21057;51.024;7.540;2022-09-09T00:37:48;16.80;99.90
15455;DHT22;21057;51.024;7.540;2022-09-09T00:40:23;16.70;99.90
15455;DHT22;21057;51.024;7.540;2022-09-09T00:43:06;16.60;99.90
15455;DHT22;21057;51.024;7.540;2022-09-09T00:45:46;16.60;99.90
15455;DHT22;21057;51.024;7.540;2022-09-09T00:48:22;16.50;99.90
15455;DHT22;21057;51.024;7.540;2022-09-09T00:51:20;16.40;99.90
15455;DHT22;21057;51.024;7.540;2022-09-09T00:57:14;16.30;99.90
15455;DHT22;21057;51.024;7.540;2022-09-09T00:59:51;16.20;99.90
15455;DHT22;21057;51.024;7.540;2022-09-09T01:02:27;16.10;99.90
15455;DHT22;21057;51.024;7.540;2022-09-09T01:05:01;16.00;99.90
15455;DHT22;21057;51.024;7.540;2022-09-09T01:07:31;15.90;99.90
15455;DHT22;21057;51.024;7.540;2022-09-09T01:10:00;15.90;99.90
15455;DHT22;21057;51.024;7.540;2022-09-09T01:12:37;15.80;99.90
15455;DHT22;21057;51.024;7.540;2022-09-09T01:15:10;15.80;99.90
15455;DHT22;21057;51.024;7.540;2022-09-09T01:17:47;15.90;99.90
15455;DHT22;21057;51.024;7.540;2022-09-09T01:20:22;15.80;99.90
15455;DHT22;21057;51.024;7.540;2022-09-09T01:23:04;15.80;99.90
15455;DHT22;21057;51.024;7.540;2022-09-09T01:26:10;15.80;99.90
15455;DHT22;21057;51.024;7.540;2022-09-09T01:28:40;15.80;99.90
15455;DHT22;21057;51.024;7.540;2022-09-09T01:31:12;15.80;99.90
15455;DHT22;21057;51.024;7.540;2022-09-09T01:33:41;15.80;99.90
15455;DHT22;21057;51.024;7.540;2022-09-09T01:36:12;15.80;99.90
15455;DHT22;21057;51.024;7.540;2022-09-09T01:38:41;15.80;99.90
15455;DHT22;21057;51.024;7.540;2022-09-09T01:41:11;15.90;99.90
15455;DHT22;21057;51.024;7.540;2022-09-09T01:43:38;15.90;99.90
15455;DHT22;21057;51.024;7.540;2022-09-09T01:46:05;15.90;99.90
15455;DHT22;21057;51.024;7.540;2022-09-09T01:48:33;15.80;99.90
15455;DHT22;21057;51.024;7.540;2022-09-09T01:51:00;15.90;99.90
15455;DHT22;21057;51.024;7.540;2022-09-09T01:53:27;15.90;99.90
15455;DHT22;21057;51.024;7.540;2022-09-09T01:56:04;15.90;99.90
15455;DHT22;21057;51.024;7.540;2022-09-09T01:58:45;15.90;99.90
15455;DHT22;21057;51.024;7.540;2022-09-09T02:01:21;15.80;99.90
15455;DHT22;21057;51.024;7.540;2022-09-09T02:03:53;15.80;99.90
15455;DHT22;21057;51.024;7.540;2022-09-09T02:06:27;15.70;99.90
15455;DHT22;21057;51.024;7.540;2022-09-09T02:08:58;15.70;99.90
15455;DHT22;21057;51.024;7.540;2022-09-09T02:11:27;15.70;99.90
15455;DHT22;21057;51.024;7.540;2022-09-09T02:14:00;15.70;99.90
15455;DHT22;21057;51.024;7.540;2022-09-09T02:16:31;15.70;99.90
15455;DHT22;21057;51.024;7.540;2022-09-09T02:19:08;15.60;99.90
15455;DHT22;21057;51.024;7.540;2022-09-09T02:21:40;15.60;99.90
15455;DHT22;21057;51.024;7.540;2022-09-09T02:24:09;15.60;99.90
15455;DHT22;21057;51.024;7.540;2022-09-09T02:26:39;15.50;99.90
15455;DHT22;21057;51.024;7.540;2022-09-09T02:29:16;15.50;99.90
15455;DHT22;21057;51.024;7.540;2022-09-09T02:31:47;15.50;99.90
15455;DHT22;21057;51.024;7.540;2022-09-09T02:34:18;15.60;99.90
15455;DHT22;21057;51.024;7.540;2022-09-09T02:36:47;15.60;99.90
15455;DHT22;21057;51.024;7.540;2022-09-09T02:39:18;15.70;99.90
15455;DHT22;21057;51.024;7.540;2022-09-09T02:41:45;15.60;99.90
15455;DHT22;21057;51.024;7.540;2022-09-09T02:44:16;15.60;99.90
15455;DHT22;21057;51.024;7.540;2022-09-09T02:47:26;15.60;99.90
15455;DHT22;21057;51.024;7.540;2022-09-09T02:50:04;15.70;99.90
15455;DHT22;21057;51.024;7.540;2022-09-09T02:52:38;15.70;99.90
15455;DHT22;21057;51.024;7.540;2022-09-09T02:55:14;15.70;99.90
15455;DHT22;21057;51.024;7.540;2022-09-09T02:57:43;15.70;99.90
15455;DHT22;21057;51.024;7.540;2022-09-09T03:00:35;15.70;99.90
15455;DHT22;21057;51.024;7.540;2022-09-09T03:03:03;15.60;99.90
15455;DHT22;21057;51.024;7.540;2022-09-09T03:05:30;15.60;99.90
15455;DHT22;21057;51.024;7.540;2022-09-09T03:07:57;15.60;99.90
15455;DHT22;21057;51.024;7.540;2022-09-09T03:10:24;15.50;99.90
15455;DHT22;21057;51.024;7.540;2022-09-09T03:13:18;15.50;99.90
15455;DHT22;21057;51.024;7.540;2022-09-09T03:15:49;15.50;99.90
15455;DHT22;21057;51.024;7.540;2022-09-09T03:18:17;15.60;99.90
15455;DHT22;21057;51.024;7.540;2022-09-09T03:20:46;15.60;99.90
15455;DHT22;21057;51.024;7.540;2022-09-09T03:23:14;15.60;99.90
15455;DHT22;21057;51.024;7.540;2022-09-09T03:25:46;15.70;99.90
15455;DHT22;21057;51.024;7.540;2022-09-09T03:28:13;15.80;99.90
15455;DHT22;21057;51.024;7.540;2022-09-09T03:30:40;15.90;99.90
15455;DHT22;21057;51.024;7.540;2022-09-09T03:33:09;15.90;99.90
15455;DHT22;21057;51.024;7.540;2022-09-09T03:35:37;16.00;99.90
15455;DHT22;21057;51.024;7.540;2022-09-09T03:38:05;16.00;99.90
15455;DHT22;21057;51.024;7.540;2022-09-09T03:40:31;16.00;99.90
15455;DHT22;21057;51.024;7.540;2022-09-09T03:42:58;16.00;99.90
15455;DHT22;21057;51.024;7.540;2022-09-09T03:45:48;16.10;99.90
15455;DHT22;21057;51.024;7.540;2022-09-09T03:48:17;16.00;99.90
15455;DHT22;21057;51.024;7.540;2022-09-09T03:50:45;16.00;99.90
15455;DHT22;21057;51.024;7.540;2022-09-09T03:53:12;15.90;99.90
15455;DHT22;21057;51.024;7.540;2022-09-09T03:55:39;15.90;99.90
15455;DHT22;21057;51.024;7.540;2022-09-09T03:58:07;15.90;99.90
15455;DHT22;21057;51.024;7.540;2022-09-09T04:00:34;15.90;99.90
15455;DHT22;21057;51.024;7.540;2022-09-09T04:03:01;16.00;99.90
15455;DHT22;21057;51.024;7.540;2022-09-09T04:05:36;16.00;99.90
15455;DHT22;21057;51.024;7.540;2022-09-09T04:08:05;16.10;99.90
15455;DHT22;21057;51.024;7.540;2022-09-09T04:10:32;15.90;99.90
15455;DHT22;21057;51.024;7.540;2022-09-09T04:13:00;16.00;99.90
15455;DHT22;21057;51.024;7.540;2022-09-09T04:15:27;16.10;99.90
15455;DHT22;21057;51.024;7.540;2022-09-09T04:17:54;16.10;99.90
15455;DHT22;21057;51.024;7.540;2022-09-09T04:20:21;16.20;99.90
15455;DHT22;21057;51.024;7.540;2022-09-09T04:22:50;16.20;99.90
15455;DHT22;21057;51.024;7.540;2022-09-09T04:25:16;16.10;99.90
15455;DHT22;21057;51.024;7.540;2022-09-09T04:27:43;16.30;99.90
15455;DHT22;21057;51.024;7.540;2022-09-09T04:30:11;16.20;99.90
15455;DHT22;21057;51.024;7.540;2022-09-09T04:32:38;16.30;99.90
15455;DHT22;21057;51.024;7.540;2022-09-09T04:35:05;16.30;99.90
15455;DHT22;21057;51.024;7.540;2022-09-09T04:37:32;16.30;99.90
15455;DHT22;21057;51.024;7.540;2022-09-09T04:40:00;16.20;99.90
15455;DHT22;21057;51.024;7.540;2022-09-09T04:42:28;16.20;99.90
15455;DHT22;21057;51.024;7.540;2022-09-09T04:44:54;16.10;99.90
15455;DHT22;21057;51.024;7.540;2022-09-09T04:47:22;16.20;99.90
15455;DHT22;21057;51.024;7.540;2022-09-09T04:49:49;16.20;99.90
15455;DHT22;21057;51.024;7.540;2022-09-09T04:52:17;16.20;99.90
15455;DHT22;21057;51.024;7.540;2022-09-09T04:54:44;16.10;99.90
15455;DHT22;21057;51.024;7.540;2022-09-09T04:57:12;16.10;99.90
15455;DHT22;21057;51.024;7.540;2022-09-09T04:59:39;16.10;99.90
15455;DHT22;21057;51.024;7.540;2022-09-09T05:02:06;16.20;99.90
15455;DHT22;21057;51.024;7.540;2022-09-09T05:04:34;16.30;99.90
15455;DHT22;21057;51.024;7.540;2022-09-09T05:07:01;16.20;99.90
15455;DHT22;21057;51.024;7.540;2022-09-09T05:12:53;16.20;99.90
15455;DHT22;21057;51.024;7.540;2022-09-09T05:15:20;16.30;99.90
15455;DHT22;21057;51.024;7.540;2022-09-09T05:17:56;16.30;99.90
15455;DHT22;21057;51.024;7.540;2022-09-09T05:23:55;16.60;99.90
15455;DHT22;21057;51.024;7.540;2022-09-09T05:26:23;16.60;99.90
15455;DHT22;21057;51.024;7.540;2022-09-09T05:28:51;16.60;99.90
15455;DHT22;21057;51.024;7.540;2022-09-09T05:31:19;16.60;99.90
15455;DHT22;21057;51.024;7.540;2022-09-09T05:33:47;16.80;99.90
15455;DHT22;21057;51.024;7.540;2022-09-09T05:36:22;16.80;99.90
15455;DHT22;21057;51.024;7.540;2022-09-09T05:38:50;16.90;99.90
15455;DHT22;21057;51.024;7.540;2022-09-09T05:41:47;16.80;99.90
15455;DHT22;21057;51.024;7.540;2022-09-09T05:44:17;16.80;99.90
15455;DHT22;21057;51.024;7.540;2022-09-09T05:46:54;16.90;99.90
15455;DHT22;21057;51.024;7.540;2022-09-09T05:49:22;16.70;99.90
15455;DHT22;21057;51.024;7.540;2022-09-09T05:51:53;16.80;99.90
15455;DHT22;21057;51.024;7.540;2022-09-09T05:54:19;16.60;99.90
15455;DHT22;21057;51.024;7.540;2022-09-09T05:56:49;16.60;99.90
15455;DHT22;21057;51.024;7.540;2022-09-09T05:59:19;16.60;99.90
15455;DHT22;21057;51.024;7.540;2022-09-09T06:01:47;16.80;99.90
15455;DHT22;21057;51.024;7.540;2022-09-09T06:04:20;16.90;99.90
15455;DHT22;21057;51.024;7.540;2022-09-09T06:06:54;17.00;99.90
15455;DHT22;21057;51.024;7.540;2022-09-09T06:09:22;17.00;99.90
15455;DHT22;21057;51.024;7.540;2022-09-09T06:12:02;17.20;99.90
15455;DHT22;21057;51.024;7.540;2022-09-09T06:14:33;17.30;99.90
15455;DHT22;21057;51.024;7.540;2022-09-09T06:17:00;17.40;99.90
15455;DHT22;21057;51.024;7.540;2022-09-09T06:19:27;17.50;99.90
15455;DHT22;21057;51.024;7.540;2022-09-09T06:21:56;17.50;99.90
15455;DHT22;21057;51.024;7.540;2022-09-09T06:24:24;17.40;99.90
15455;DHT22;21057;51.024;7.540;2022-09-09T06:26:51;17.40;99.90
15455;DHT22;21057;51.024;7.540;2022-09-09T06:29:40;17.40;99.90
15455;DHT22;21057;51.024;7.540;2022-09-09T06:32:07;17.30;99.90
15455;DHT22;21057;51.024;7.540;2022-09-09T06:34:44;17.20;99.90
15455;DHT22;21057;51.024;7.540;2022-09-09T06:37:11;17.20;99.90
15455;DHT22;21057;51.024;7.540;2022-09-09T06:39:43;17.20;99.90
15455;DHT22;21057;51.024;7.540;2022-09-09T06:42:10;17.20;99.90
15455;DHT22;21057;51.024;7.540;2022-09-09T06:44:37;17.20;99.90
15455;DHT22;21057;51.024;7.540;2022-09-09T06:47:05;17.30;99.90
15455;DHT22;21057;51.024;7.540;2022-09-09T06:49:32;17.50;99.90
15455;DHT22;21057;51.024;7.540;2022-09-09T06:52:09;17.50;99.90
15455;DHT22;21057;51.024;7.540;2022-09-09T06:54:49;17.50;99.90
15455;DHT22;21057;51.024;7.540;2022-09-09T06:57:16;17.70;99.90
15455;DHT22;21057;51.024;7.540;2022-09-09T06:59:57;18.00;99.90
15455;DHT22;21057;51.024;7.540;2022-09-09T07:02:26;18.10;99.90
15455;DHT22;21057;51.024;7.540;2022-09-09T07:05:03;18.10;99.90
15455;DHT22;21057;51.024;7.540;2022-09-09T07:07:30;18.10;99.90
15455;DHT22;21057;51.024;7.540;2022-09-09T07:09:57;18.10;99.90
15455;DHT22;21057;51.024;7.540;2022-09-09T07:12:24;18.20;99.90
15455;DHT22;21057;51.024;7.540;2022-09-09T07:14:51;18.30;99.90
15455;DHT22;21057;51.024;7.540;2022-09-09T07:17:17;18.40;99.90
15455;DHT22;21057;51.024;7.540;2022-09-09T07:19:49;18.60;99.90
15455;DHT22;21057;51.024;7.540;2022-09-09T07:22:16;18.50;99.90
15455;DHT22;21057;51.024;7.540;2022-09-09T07:24:44;18.60;99.90
15455;DHT22;21057;51.024;7.540;2022-09-09T07:27:11;18.70;99.90
15455;DHT22;21057;51.024;7.540;2022-09-09T07:29:56;18.60;99.90
15455;DHT22;21057;51.024;7.540;2022-09-09T07:32:25;18.50;99.90
15455;DHT22;21057;51.024;7.540;2022-09-09T07:35:01;18.50;99.90
15455;DHT22;21057;51.024;7.540;2022-09-09T07:37:41;18.60;99.90
15455;DHT22;21057;51.024;7.540;2022-09-09T07:40:20;18.60;99.90
15455;DHT22;21057;51.024;7.540;2022-09-09T07:42:47;18.60;99.90
15455;DHT22;21057;51.024;7.540;2022-09-09T07:45:14;18.60;99.90
15455;DHT22;21057;51.024;7.540;2022-09-09T07:47:42;18.60;99.90
15455;DHT22;21057;51.024;7.540;2022-09-09T07:50:23;18.60;99.90
15455;DHT22;21057;51.024;7.540;2022-09-09T07:52:50;18.90;99.90
15455;DHT22;21057;51.024;7.540;2022-09-09T07:55:17;18.90;99.90
15455;DHT22;21057;51.024;7.540;2022-09-09T07:57:46;19.10;99.90
15455;DHT22;21057;51.024;7.540;2022-09-09T08:00:14;19.40;99.90
15455;DHT22;21057;51.024;7.540;2022-09-09T08:02:41;19.60;99.90
15455;DHT22;21057;51.024;7.540;2022-09-09T08:05:12;19.80;99.90
15455;DHT22;21057;51.024;7.540;2022-09-09T08:07:43;20.20;99.90
15455;DHT22;21057;51.024;7.540;2022-09-09T08:10:18;20.50;99.90
15455;DHT22;21057;51.024;7.540;2022-09-09T08:12:45;20.40;99.90
15455;DHT22;21057;51.024;7.540;2022-09-09T08:15:17;20.70;99.90
15455;DHT22;21057;51.024;7.540;2022-09-09T08:17:45;20.90;99.90
15455;DHT22;21057;51.024;7.540;2022-09-09T08:20:12;20.90;99.90
15455;DHT22;21057;51.024;7.540;2022-09-09T08:22:56;20.80;99.90
15455;DHT22;21057;51.024;7.540;2022-09-09T08:25:24;20.60;99.90
15455;DHT22;21057;51.024;7.540;2022-09-09T08:27:53;20.40;99.90
15455;DHT22;21057;51.024;7.540;2022-09-09T08:30:24;20.20;99.90
15455;DHT22;21057;51.024;7.540;2022-09-09T08:32:52;20.10;99.90
15455;DHT22;21057;51.024;7.540;2022-09-09T08:35:30;20.00;99.90
15455;DHT22;21057;51.024;7.540;2022-09-09T08:38:02;19.80;99.90
15455;DHT22;21057;51.024;7.540;2022-09-09T08:40:33;20.10;99.90
15455;DHT22;21057;51.024;7.540;2022-09-09T08:43:05;20.20;99.90
15455;DHT22;21057;51.024;7.540;2022-09-09T08:45:50;20.10;99.90
15455;DHT22;21057;51.024;7.540;2022-09-09T08:48:42;20.00;99.90
15455;DHT22;21057;51.024;7.540;2022-09-09T08:51:19;19.90;99.90
15455;DHT22;21057;51.024;7.540;2022-09-09T08:53:49;19.90;99.90
15455;DHT22;21057;51.024;7.540;2022-09-09T08:56:21;19.80;99.90
15455;DHT22;21057;51.024;7.540;2022-09-09T08:58:49;19.70;99.90
15455;DHT22;21057;51.024;7.540;2022-09-09T09:04:44;19.70;99.90
15455;DHT22;21057;51.024;7.540;2022-09-09T09:07:25;19.70;99.90
15455;DHT22;21057;51.024;7.540;2022-09-09T09:10:20;19.80;99.90
15455;DHT22;21057;51.024;7.540;2022-09-09T09:13:03;19.80;99.90
15455;DHT22;21057;51.024;7.540;2022-09-09T09:15:36;19.80;99.90
15455;DHT22;21057;51.024;7.540;2022-09-09T09:18:04;19.90;99.90
15455;DHT22;21057;51.024;7.540;2022-09-09T09:20:40;20.00;99.90
15455;DHT22;21057;51.024;7.540;2022-09-09T09:23:25;20.30;99.90
15455;DHT22;21057;51.024;7.540;2022-09-09T09:25:58;20.80;99.90
15455;DHT22;21057;51.024;7.540;2022-09-09T09:28:30;20.30;99.90
15455;DHT22;21057;51.024;7.540;2022-09-09T09:31:00;20.20;99.90
15455;DHT22;21057;51.024;7.540;2022-09-09T09:33:32;20.60;99.90
15455;DHT22;21057;51.024;7.540;2022-09-09T09:36:00;20.70;99.90
15455;DHT22;21057;51.024;7.540;2022-09-09T09:38:29;20.80;99.90
15455;DHT22;21057;51.024;7.540;2022-09-09T09:40:58;20.80;99.90
15455;DHT22;21057;51.024;7.540;2022-09-09T09:43:29;20.80;99.90
15455;DHT22;21057;51.024;7.540;2022-09-09T09:46:17;20.80;99.90
15455;DHT22;21057;51.024;7.540;2022-09-09T09:48:45;20.70;99.90
15455;DHT22;21057;51.024;7.540;2022-09-09T09:51:32;20.70;99.90
15455;DHT22;21057;51.024;7.540;2022-09-09T09:54:19;21.10;99.80
15455;DHT22;21057;51.024;7.540;2022-09-09T09:56:53;21.20;99.10
15455;DHT22;21057;51.024;7.540;2022-09-09T09:59:23;21.00;98.70
15455;DHT22;21057;51.024;7.540;2022-09-09T10:01:50;20.90;99.30
15455;DHT22;21057;51.024;7.540;2022-09-09T10:04:18;20.80;99.90
15455;DHT22;21057;51.024;7.540;2022-09-09T10:06:51;20.80;99.90
15455;DHT22;21057;51.024;7.540;2022-09-09T10:09:22;20.80;99.90
15455;DHT22;21057;51.024;7.540;2022-09-09T10:11:57;21.40;98.90
15455;DHT22;21057;51.024;7.540;2022-09-09T10:14:49;22.40;99.40
15455;DHT22;21057;51.024;7.540;2022-09-09T10:17:25;22.80;97.10
15455;DHT22;21057;51.024;7.540;2022-09-09T10:20:10;22.80;96.20
15455;DHT22;21057;51.024;7.540;2022-09-09T10:22:45;22.40;95.80
15455;DHT22;21057;51.024;7.540;2022-09-09T10:25:21;21.80;96.10
15455;DHT22;21057;51.024;7.540;2022-09-09T10:28:15;21.20;96.70
15455;DHT22;21057;51.024;7.540;2022-09-09T10:30:59;20.90;97.30
15455;DHT22;21057;51.024;7.540;2022-09-09T10:33:33;20.60;97.50
15455;DHT22;21057;51.024;7.540;2022-09-09T10:36:12;20.60;98.80
15455;DHT22;21057;51.024;7.540;2022-09-09T10:38:46;20.70;98.40
15455;DHT22;21057;51.024;7.540;2022-09-09T10:41:18;20.40;98.60
15455;DHT22;21057;51.024;7.540;2022-09-09T10:47:12;20.80;97.90
15455;DHT22;21057;51.024;7.540;2022-09-09T10:49:57;21.20;97.70
15455;DHT22;21057;51.024;7.540;2022-09-09T10:52:37;21.10;96.80
15455;DHT22;21057;51.024;7.540;2022-09-09T10:55:10;21.20;98.20
15455;DHT22;21057;51.024;7.540;2022-09-09T10:57:43;21.40;97.90
15455;DHT22;21057;51.024;7.540;2022-09-09T11:00:18;21.80;96.60
15455;DHT22;21057;51.024;7.540;2022-09-09T11:06:24;23.10;91.50
15455;DHT22;21057;51.024;7.540;2022-09-09T11:08:53;22.90;92.90
15455;DHT22;21057;51.024;7.540;2022-09-09T11:11:27;22.80;92.40
15455;DHT22;21057;51.024;7.540;2022-09-09T11:14:09;22.80;93.80
15455;DHT22;21057;51.024;7.540;2022-09-09T11:16:44;22.80;94.00
15455;DHT22;21057;51.024;7.540;2022-09-09T11:19:31;22.00;93.20
15455;DHT22;21057;51.024;7.540;2022-09-09T11:22:02;21.90;95.10
15455;DHT22;21057;51.024;7.540;2022-09-09T11:24:41;22.00;94.50
15455;DHT22;21057;51.024;7.540;2022-09-09T11:27:13;22.10;94.10
15455;DHT22;21057;51.024;7.540;2022-09-09T11:30:18;22.10;93.50
15455;DHT22;21057;51.024;7.540;2022-09-09T11:32:58;21.70;93.40
15455;DHT22;21057;51.024;7.540;2022-09-09T11:35:42;21.70;94.80
15455;DHT22;21057;51.024;7.540;2022-09-09T11:38:19;21.50;95.80
15455;DHT22;21057;51.024;7.540;2022-09-09T11:40:54;21.30;97.70
15455;DHT22;21057;51.024;7.540;2022-09-09T11:43:26;21.00;97.90
15455;DHT22;21057;51.024;7.540;2022-09-09T11:45:55;20.70;99.30
15455;DHT22;21057;51.024;7.540;2022-09-09T11:48:31;20.60;99.90
15455;DHT22;21057;51.024;7.540;2022-09-09T11:51:08;20.60;99.90
15455;DHT22;21057;51.024;7.540;2022-09-09T11:53:46;21.30;99.90
15455;DHT22;21057;51.024;7.540;2022-09-09T11:56:30;22.60;99.10
15455;DHT22;21057;51.024;7.540;2022-09-09T11:59:05;23.50;95.30
15455;DHT22;21057;51.024;7.540;2022-09-09T12:01:37;23.80;93.80
15455;DHT22;21057;51.024;7.540;2022-09-09T12:04:36;23.90;92.80
15455;DHT22;21057;51.024;7.540;2022-09-09T12:07:33;24.30;93.50
15455;DHT22;21057;51.024;7.540;2022-09-09T12:10:05;24.00;91.60
15455;DHT22;21057;51.024;7.540;2022-09-09T12:12:52;23.70;90.10
15455;DHT22;21057;51.024;7.540;2022-09-09T12:15:28;23.50;93.50
15455;DHT22;21057;51.024;7.540;2022-09-09T12:17:56;24.40;91.70
15455;DHT22;21057;51.024;7.540;2022-09-09T12:20:32;24.50;85.60
15455;DHT22;21057;51.024;7.540;2022-09-09T12:23:22;24.20;88.80
15455;DHT22;21057;51.024;7.540;2022-09-09T12:26:04;23.60;90.10
15455;DHT22;21057;51.024;7.540;2022-09-09T12:28:44;23.10;90.40
15455;DHT22;21057;51.024;7.540;2022-09-09T12:31:17;22.70;92.00
15455;DHT22;21057;51.024;7.540;2022-09-09T12:33:49;22.50;91.60
15455;DHT22;21057;51.024;7.540;2022-09-09T12:36:22;22.30;91.50
15455;DHT22;21057;51.024;7.540;2022-09-09T12:38:51;22.30;91.90
15455;DHT22;21057;51.024;7.540;2022-09-09T12:41:21;22.60;92.50
15455;DHT22;21057;51.024;7.540;2022-09-09T12:43:49;23.40;92.00
15455;DHT22;21057;51.024;7.540;2022-09-09T12:46:26;23.60;91.00
15455;DHT22;21057;51.024;7.540;2022-09-09T12:48:57;23.80;88.80
15455;DHT22;21057;51.024;7.540;2022-09-09T12:51:28;24.00;90.20
15455;DHT22;21057;51.024;7.540;2022-09-09T12:53:56;23.30;87.60
15455;DHT22;21057;51.024;7.540;2022-09-09T12:56:27;22.70;88.60
15455;DHT22;21057;51.024;7.540;2022-09-09T12:58:57;22.30;91.40
15455;DHT22;21057;51.024;7.540;2022-09-09T13:01:26;22.10;90.80
15455;DHT22;21057;51.024;7.540;2022-09-09T13:03:54;21.90;91.70
15455;DHT22;21057;51.024;7.540;2022-09-09T13:06:22;22.20;92.50
15455;DHT22;21057;51.024;7.540;2022-09-09T13:08:52;22.40;91.80
15455;DHT22;21057;51.024;7.540;2022-09-09T13:11:22;22.50;91.20
15455;DHT22;21057;51.024;7.540;2022-09-09T13:14:00;22.30;90.90
15455;DHT22;21057;51.024;7.540;2022-09-09T13:16:29;22.20;91.30
15455;DHT22;21057;51.024;7.540;2022-09-09T13:18:57;22.30;91.30
15455;DHT22;21057;51.024;7.540;2022-09-09T13:21:36;22.30;92.60
15455;DHT22;21057;51.024;7.540;2022-09-09T13:24:21;22.40;92.40
15455;DHT22;21057;51.024;7.540;2022-09-09T13:26:54;22.40;92.10
15455;DHT22;21057;51.024;7.540;2022-09-09T13:29:32;22.30;90.50
15455;DHT22;21057;51.024;7.540;2022-09-09T13:32:18;21.60;91.20
15455;DHT22;21057;51.024;7.540;2022-09-09T13:34:51;21.10;96.30
15455;DHT22;21057;51.024;7.540;2022-09-09T13:37:23;21.10;99.10
15455;DHT22;21057;51.024;7.540;2022-09-09T13:39:54;21.30;99.90
15455;DHT22;21057;51.024;7.540;2022-09-09T13:42:25;21.80;99.90
15455;DHT22;21057;51.024;7.540;2022-09-09T13:44:53;22.50;99.90
15455;DHT22;21057;51.024;7.540;2022-09-09T13:47:31;22.60;95.80
15455;DHT22;21057;51.024;7.540;2022-09-09T13:50:14;22.80;96.30
15455;DHT22;21057;51.024;7.540;2022-09-09T13:52:44;22.70;97.30
15455;DHT22;21057;51.024;7.540;2022-09-09T13:55:14;22.40;96.80
15455;DHT22;21057;51.024;7.540;2022-09-09T13:57:51;22.20;96.60
15455;DHT22;21057;51.024;7.540;2022-09-09T14:00:33;22.00;98.10
15455;DHT22;21057;51.024;7.540;2022-09-09T14:03:01;22.00;96.60
15455;DHT22;21057;51.024;7.540;2022-09-09T14:05:29;21.70;97.40
15455;DHT22;21057;51.024;7.540;2022-09-09T14:07:57;21.30;97.60
15455;DHT22;21057;51.024;7.540;2022-09-09T14:10:29;21.20;98.90
15455;DHT22;21057;51.024;7.540;2022-09-09T14:13:11;21.00;98.10
15455;DHT22;21057;51.024;7.540;2022-09-09T14:15:39;20.30;99.90
15455;DHT22;21057;51.024;7.540;2022-09-09T14:18:11;20.50;99.90
15455;DHT22;21057;51.024;7.540;2022-09-09T14:20:48;20.60;99.90
15455;DHT22;21057;51.024;7.540;2022-09-09T14:23:16;20.80;99.90
15455;DHT22;21057;51.024;7.540;2022-09-09T14:25:45;20.70;99.40
15455;DHT22;21057;51.024;7.540;2022-09-09T14:28:13;20.80;99.90
15455;DHT22;21057;51.024;7.540;2022-09-09T14:30:43;20.60;99.90
15455;DHT22;21057;51.024;7.540;2022-09-09T14:33:17;20.80;99.90
15455;DHT22;21057;51.024;7.540;2022-09-09T14:35:45;20.80;99.90
15455;DHT22;21057;51.024;7.540;2022-09-09T14:38:12;20.80;99.80
15455;DHT22;21057;51.024;7.540;2022-09-09T14:40:39;20.90;99.90
15455;DHT22;21057;51.024;7.540;2022-09-09T14:43:11;20.70;99.90
15455;DHT22;21057;51.024;7.540;2022-09-09T14:45:37;20.70;99.90
15455;DHT22;21057;51.024;7.540;2022-09-09T14:48:13;20.80;99.90
15455;DHT22;21057;51.024;7.540;2022-09-09T14:50:41;21.00;99.90
15455;DHT22;21057;51.024;7.540;2022-09-09T14:53:08;21.00;99.90
15455;DHT22;21057;51.024;7.540;2022-09-09T14:55:36;21.00;99.90
15455;DHT22;21057;51.024;7.540;2022-09-09T14:58:03;21.00;99.90
15455;DHT22;21057;51.024;7.540;2022-09-09T15:00:32;21.20;99.90
15455;DHT22;21057;51.024;7.540;2022-09-09T15:03:09;21.30;99.90
15455;DHT22;21057;51.024;7.540;2022-09-09T15:05:36;21.30;99.90
15455;DHT22;21057;51.024;7.540;2022-09-09T15:08:03;21.40;99.90
15455;DHT22;21057;51.024;7.540;2022-09-09T15:10:32;21.50;99.90
15455;DHT22;21057;51.024;7.540;2022-09-09T15:13:07;21.60;99.90
15455;DHT22;21057;51.024;7.540;2022-09-09T15:15:47;21.20;98.90
15455;DHT22;21057;51.024;7.540;2022-09-09T15:18:24;21.10;99.50
15455;DHT22;21057;51.024;7.540;2022-09-09T15:20:51;20.80;99.60
15455;DHT22;21057;51.024;7.540;2022-09-09T15:23:20;20.60;99.90
15455;DHT22;21057;51.024;7.540;2022-09-09T15:26:02;20.40;99.90
15455;DHT22;21057;51.024;7.540;2022-09-09T15:28:31;20.30;99.90
15455;DHT22;21057;51.024;7.540;2022-09-09T15:31:05;20.00;99.90
15455;DHT22;21057;51.024;7.540;2022-09-09T15:33:36;19.80;99.90
15455;DHT22;21057;51.024;7.540;2022-09-09T15:36:17;19.60;99.90
15455;DHT22;21057;51.024;7.540;2022-09-09T15:38:46;19.30;99.90
15455;DHT22;21057;51.024;7.540;2022-09-09T15:41:14;19.20;99.90
15455;DHT22;21057;51.024;7.540;2022-09-09T15:43:43;19.20;99.90
15455;DHT22;21057;51.024;7.540;2022-09-09T15:46:39;19.00;99.90
15455;DHT22;21057;51.024;7.540;2022-09-09T15:49:18;19.00;99.90
15455;DHT22;21057;51.024;7.540;2022-09-09T15:51:50;18.90;99.90
15455;DHT22;21057;51.024;7.540;2022-09-09T15:54:19;19.00;99.90
15455;DHT22;21057;51.024;7.540;2022-09-09T15:56:52;19.00;99.90
15455;DHT22;21057;51.024;7.540;2022-09-09T15:59:20;19.00;99.90
15455;DHT22;21057;51.024;7.540;2022-09-09T16:01:50;18.50;99.90
15455;DHT22;21057;51.024;7.540;2022-09-09T16:04:26;18.20;99.90
15455;DHT22;21057;51.024;7.540;2022-09-09T16:06:59;17.90;99.90
15455;DHT22;21057;51.024;7.540;2022-09-09T16:09:29;17.70;99.90
15455;DHT22;21057;51.024;7.540;2022-09-09T16:12:06;17.70;99.90
15455;DHT22;21057;51.024;7.540;2022-09-09T16:14:35;17.60;99.90
15455;DHT22;21057;51.024;7.540;2022-09-09T16:17:09;17.60;99.90
15455;DHT22;21057;51.024;7.540;2022-09-09T16:19:39;17.50;99.90
15455;DHT22;21057;51.024;7.540;2022-09-09T16:22:06;17.60;99.90
15455;DHT22;21057;51.024;7.540;2022-09-09T16:24:35;17.60;99.90
15455;DHT22;21057;51.024;7.540;2022-09-09T16:27:11;17.50;99.90